HUZ weather

Huizhou Airport
Huizhou, Guangdong Province, China

Public forecast

Using degrees Celsius for public forecast. Weather courtesy of forecast.io.

METAR (pilot weather report)

Closest report is Shenzhen Bao'an International Airport, 50.1 nm (92.9 km) WSW. Retrieved 2019/05/25 21:00 UTC (9 minutes ago):

ZGSZ 252100Z 16003MPS 9999 -SHRA SCT016 25/25 Q1007 NOSIG

TAF (pilot weather forecast)

Closest forecast is Shenzhen Bao'an International Airport, 50.1 nm (92.9 km) WSW. Retrieved 2019/05/25 18:00 UTC (3 hours ago):

TAF ZGSZ 251511Z 2518/2618 12004MPS 6000 FEW020 BKN035 TX30/2606Z TN25/2522Z TEMPO 2518/2522 SHRA SCT011 FEW020CB BKN030 TEMPO 2522/2602 TSRA SCT010 FEW020CB BKN030